createdAt,value
2023-04-04T00:00:32.748Z,102852.38
2023-04-04T00:03:00.811Z,102847.09
2023-04-04T00:05:28.746Z,102842.63
2023-04-04T00:07:56.616Z,102847.97
2023-04-04T00:10:25.781Z,102847.97
2023-04-04T00:12:53.749Z,102853.28
2023-04-04T00:15:22.258Z,102853.28
2023-04-04T00:17:50.479Z,102847.84
2023-04-04T00:20:18.448Z,102857.59
2023-04-04T00:22:46.373Z,102854.03
2023-04-04T00:25:14.481Z,102855.84
2023-04-04T00:27:43.832Z,102857.59
2023-04-04T00:30:13.417Z,102854.03
2023-04-04T00:32:42.830Z,102858.47
2023-04-04T00:35:10.888Z,102859.34
2023-04-04T00:37:39.048Z,102858.41
2023-04-04T00:40:08.578Z,102866.34
2023-04-04T00:42:37.347Z,102861.03
2023-04-04T00:45:08.616Z,102863.69
2023-04-04T00:47:37.276Z,102862.81
2023-04-04T00:50:05.956Z,102869.06
2023-04-04T00:52:33.864Z,102866.34
2023-04-04T00:55:01.761Z,102867.19
2023-04-04T00:57:29.953Z,102864.50
2023-04-04T00:59:58.434Z,102858.25
2023-04-04T01:02:28.139Z,102863.53
2023-04-04T01:04:56.792Z,102858.28
2023-04-04T01:07:24.833Z,102849.28
2023-04-04T01:09:53.124Z,102845.69
2023-04-04T01:12:21.104Z,102846.59
2023-04-04T01:14:48.970Z,102851.84
2023-04-04T01:17:17.465Z,102847.44
2023-04-04T01:19:54.872Z,102846.53
2023-04-04T01:22:24.455Z,102843.88
2023-04-04T01:24:53.190Z,102842.97
2023-04-04T01:27:23.698Z,102843.75
2023-04-04T01:29:57.075Z,102847.38
2023-04-04T01:32:31.036Z,102853.50
2023-04-04T01:35:06.820Z,102842.91
2023-04-04T01:37:39.558Z,102844.72
2023-04-04T01:40:17.748Z,102841.09
2023-04-04T01:42:51.517Z,102838.41
2023-04-04T01:45:22.957Z,102842.91
2023-04-04T01:47:52.098Z,102844.66
2023-04-04T01:50:24.188Z,102839.28
2023-04-04T01:52:52.230Z,102843.66
2023-04-04T01:55:20.273Z,102841.09
2023-04-04T01:57:48.053Z,102839.34
2023-04-04T02:00:17.782Z,102831.34
2023-04-04T02:02:45.970Z,102840.19
2023-04-04T02:05:13.972Z,102840.06
2023-04-04T02:07:41.995Z,102841.81
2023-04-04T02:10:22.058Z,102837.41
2023-04-04T02:12:50.270Z,102834.66
2023-04-04T02:15:19.489Z,102842.59
2023-04-04T02:17:49.464Z,102846.22
2023-04-04T02:20:18.553Z,102845.31
2023-04-04T02:22:52.694Z,102842.59
2023-04-04T02:25:20.607Z,102841.69
2023-04-04T02:27:48.350Z,102848.84
2023-04-04T02:30:16.494Z,102849.66
2023-04-04T02:32:47.308Z,102848.75
2023-04-04T02:35:18.537Z,102847.81
2023-04-04T02:37:47.366Z,102846.94
2023-04-04T02:40:22.270Z,102840.78
2023-04-04T02:42:50.392Z,102834.47
2023-04-04T02:45:18.644Z,102838.94
2023-04-04T02:47:57.963Z,102834.50
2023-04-04T02:50:36.277Z,102827.34
2023-04-04T02:53:04.709Z,102824.63
2023-04-04T02:55:36.090Z,102824.63
2023-04-04T02:58:04.231Z,102824.63
2023-04-04T03:00:33.050Z,102828.13
2023-04-04T03:03:02.574Z,102832.63
2023-04-04T03:05:34.245Z,102834.44
2023-04-04T03:08:02.961Z,102837.03
2023-04-04T03:10:31.111Z,102834.34
2023-04-04T03:12:59.112Z,102836.19
2023-04-04T03:15:29.040Z,102832.69
2023-04-04T03:17:57.096Z,102825.53
2023-04-04T03:20:29.127Z,102830.78
2023-04-04T03:22:57.767Z,102830.78
2023-04-04T03:25:25.854Z,102841.47
2023-04-04T03:27:53.743Z,102838.72
2023-04-04T03:30:24.665Z,102835.97
2023-04-04T03:32:53.494Z,102842.25
2023-04-04T03:35:21.648Z,102832.34
2023-04-04T03:37:50.851Z,102830.59
2023-04-04T03:40:18.607Z,102825.19
2023-04-04T03:42:47.063Z,102821.56
2023-04-04T03:45:19.835Z,102820.78
2023-04-04T03:47:48.261Z,102817.28
2023-04-04T03:50:16.696Z,102820.84
2023-04-04T03:52:52.191Z,102822.59
2023-04-04T03:55:20.410Z,102819.03
2023-04-04T03:57:48.330Z,102818.19
2023-04-04T04:00:17.760Z,102816.38
2023-04-04T04:02:46.903Z,102812.94
2023-04-04T04:05:14.883Z,102811.06
2023-04-04T04:07:44.652Z,102823.50
2023-04-04T04:10:15.137Z,102813.72
2023-04-04T04:12:42.875Z,102821.69
2023-04-04T04:15:11.398Z,102811.13
2023-04-04T04:17:42.013Z,102812.88
2023-04-04T04:20:12.477Z,102812.88
2023-04-04T04:22:48.146Z,102811.91
2023-04-04T04:25:18.517Z,102807.50
2023-04-04T04:28:02.769Z,102821.63
2023-04-04T04:30:30.608Z,102820.78
2023-04-04T04:32:58.696Z,102821.69
2023-04-04T04:35:32.985Z,102817.22
2023-04-04T04:38:03.244Z,102808.25
2023-04-04T04:40:32.842Z,102813.59
2023-04-04T04:43:06.807Z,102809.38
2023-04-04T04:45:34.707Z,102813.72
2023-04-04T04:48:09.024Z,102808.38
2023-04-04T04:50:44.475Z,102802.03
2023-04-04T04:53:13.856Z,102802.91
2023-04-04T04:55:43.733Z,102801.06
2023-04-04T04:58:12.206Z,102806.34
2023-04-04T05:00:45.525Z,102812.59
2023-04-04T05:03:13.705Z,102800.13
2023-04-04T05:05:48.750Z,102814.31
2023-04-04T05:08:17.645Z,102807.25
2023-04-04T05:11:05.819Z,102809.91
2023-04-04T05:13:35.178Z,102810.78
2023-04-04T05:16:04.746Z,102818.81
2023-04-04T05:18:33.854Z,102811.66
2023-04-04T05:21:02.724Z,102816.22
2023-04-04T05:23:31.212Z,102819.94
2023-04-04T05:25:58.936Z,102818.97
2023-04-04T05:28:32.658Z,102827.78
2023-04-04T05:31:03.777Z,102832.25
2023-04-04T05:33:33.423Z,102832.25
2023-04-04T05:36:09.136Z,102834.97
2023-04-04T05:38:42.956Z,102844.75
2023-04-04T05:41:11.397Z,102837.69
2023-04-04T05:43:40.966Z,102830.41
2023-04-04T05:46:14.507Z,102833.22
2023-04-04T05:48:47.523Z,102836.66
2023-04-04T05:51:15.604Z,102841.28
2023-04-04T05:54:03.648Z,102846.81
2023-04-04T05:56:36.337Z,102849.53
2023-04-04T05:59:09.643Z,102841.50
2023-04-04T06:01:48.419Z,102845.00
2023-04-04T06:04:16.550Z,102852.38
2023-04-04T06:06:45.434Z,102859.84
2023-04-04T06:09:13.733Z,102860.16
2023-04-04T06:11:41.595Z,102865.44
2023-04-04T06:14:15.163Z,102870.28
2023-04-04T06:16:44.364Z,102866.00
2023-04-04T06:19:12.070Z,102862.69
2023-04-04T06:21:39.832Z,102859.06
2023-04-04T06:24:09.232Z,102862.69
2023-04-04T06:26:37.779Z,102857.47
2023-04-04T06:29:05.641Z,102860.22
2023-04-04T06:31:38.687Z,102863.88
2023-04-04T06:34:11.290Z,102858.53
2023-04-04T06:36:55.513Z,102842.50
2023-04-04T06:39:27.287Z,102848.72
2023-04-04T06:41:58.230Z,102857.63
2023-04-04T06:44:29.227Z,102859.38
2023-04-04T06:46:58.850Z,102842.41
2023-04-04T06:49:26.771Z,102848.66
2023-04-04T06:51:55.313Z,102842.44
2023-04-04T06:54:23.390Z,102838.91
2023-04-04T06:56:51.688Z,102830.91
2023-04-04T06:59:19.689Z,102830.03
2023-04-04T07:01:47.530Z,102837.13
2023-04-04T07:04:19.915Z,102832.66
2023-04-04T07:06:47.668Z,102841.56
2023-04-04T07:09:28.115Z,102839.72
2023-04-04T07:11:57.235Z,102840.53
2023-04-04T07:14:25.744Z,102827.03
2023-04-04T07:16:55.127Z,102830.63
2023-04-04T07:19:28.548Z,102826.84
2023-04-04T07:21:56.862Z,102825.88
2023-04-04T07:24:24.768Z,102816.13
2023-04-04T07:26:52.585Z,102819.47
2023-04-04T07:29:21.609Z,102803.34
2023-04-04T07:31:49.626Z,102801.47
2023-04-04T07:34:17.670Z,102800.69
2023-04-04T07:36:46.795Z,102793.28
2023-04-04T07:39:14.733Z,102788.88
2023-04-04T07:41:42.551Z,102770.91
2023-04-04T07:44:10.684Z,102767.47
2023-04-04T07:46:38.998Z,102759.25
2023-04-04T07:49:07.592Z,102766.53
2023-04-04T07:51:35.653Z,102760.38
2023-04-04T07:54:05.076Z,102753.78
2023-04-04T07:56:33.316Z,102737.13
2023-04-04T07:59:01.954Z,102736.84
2023-04-04T08:01:30.811Z,102732.84
2023-04-04T08:03:58.885Z,102729.56
2023-04-04T08:06:27.261Z,102723.41
2023-04-04T08:08:57.548Z,102735.59
2023-04-04T08:11:27.337Z,102732.56
2023-04-04T08:13:55.112Z,102735.16
2023-04-04T08:16:23.749Z,102731.09
2023-04-04T08:18:51.636Z,102735.16
2023-04-04T08:21:19.644Z,102725.78
2023-04-04T08:23:47.369Z,102727.88
2023-04-04T08:26:15.494Z,102724.06
2023-04-04T08:28:45.404Z,102723.94
2023-04-04T08:31:13.307Z,102725.69
2023-04-04T08:36:12.174Z,102715.97
2023-04-04T08:38:39.886Z,102710.53
2023-04-04T08:41:08.744Z,102702.69
2023-04-04T08:43:41.306Z,102704.66
2023-04-04T08:46:11.682Z,102710.34
2023-04-04T08:48:40.710Z,102701.66
2023-04-04T08:51:11.886Z,102694.78
2023-04-04T08:53:40.494Z,102698.94
2023-04-04T08:56:08.571Z,102692.31
2023-04-04T08:58:38.956Z,102675.72
2023-04-04T09:01:07.358Z,102679.69
2023-04-04T09:03:38.713Z,102690.31
2023-04-04T09:06:07.286Z,102666.41
2023-04-04T09:08:36.146Z,102658.34
2023-04-04T09:11:04.969Z,102658.34
2023-04-04T09:13:32.798Z,102656.25
2023-04-04T09:16:01.966Z,102637.38
2023-04-04T09:18:30.092Z,102648.34
2023-04-04T09:20:59.727Z,102639.69
2023-04-04T09:23:27.462Z,102623.19
2023-04-04T09:26:03.664Z,102643.75
2023-04-04T09:28:32.888Z,102624.13
2023-04-04T09:31:02.428Z,102622.88
2023-04-04T09:33:30.562Z,102605.59
2023-04-04T09:36:03.180Z,102610.81
2023-04-04T09:38:32.366Z,102604.44
2023-04-04T09:41:00.555Z,102604.47
2023-04-04T09:43:30.753Z,102622.75
2023-04-04T09:46:00.259Z,102623.00
2023-04-04T09:48:30.547Z,102628.38
2023-04-04T09:51:00.561Z,102626.22
2023-04-04T09:53:28.588Z,102625.72
2023-04-04T09:55:58.238Z,102617.16
2023-04-04T09:58:27.652Z,102609.81
2023-04-04T10:00:57.218Z,102609.81
2023-04-04T10:03:26.235Z,102606.53
2023-04-04T10:05:59.988Z,102601.88
2023-04-04T10:08:30.627Z,102623.22
2023-04-04T10:11:10.327Z,102628.44
2023-04-04T10:13:44.061Z,102599.28
2023-04-04T10:16:12.504Z,102584.22
2023-04-04T10:18:40.855Z,102579.94
2023-04-04T10:23:43.253Z,102547.84
2023-04-04T10:26:12.132Z,102539.22
2023-04-04T10:28:40.309Z,102539.19
2023-04-04T10:31:14.996Z,102555.81
2023-04-04T10:33:49.222Z,102544.09
2023-04-04T10:36:23.530Z,102530.25
2023-04-04T10:39:04.252Z,102540.13
2023-04-04T10:41:32.953Z,102509.16
2023-04-04T10:44:08.346Z,102523.53
2023-04-04T10:46:39.423Z,102500.97
2023-04-04T10:49:07.492Z,102502.81
2023-04-04T10:51:45.242Z,102516.47
2023-04-04T10:54:22.921Z,102520.41
2023-04-04T10:56:50.785Z,102515.63
2023-04-04T10:59:18.882Z,102500.91
2023-04-04T11:01:51.145Z,102491.41
2023-04-04T11:04:22.040Z,102501.38
2023-04-04T11:07:20.555Z,102502.69
2023-04-04T11:10:01.829Z,102491.47
2023-04-04T11:12:33.570Z,102481.38
2023-04-04T11:15:10.801Z,102496.94
2023-04-04T11:18:00.262Z,102474.56
2023-04-04T11:20:33.463Z,102479.84
2023-04-04T11:23:10.820Z,102473.03
2023-04-04T11:25:42.196Z,102470.03
2023-04-04T11:28:14.898Z,102455.41
2023-04-04T11:30:51.640Z,102470.31
2023-04-04T11:33:28.798Z,102461.16
2023-04-04T11:36:00.599Z,102486.78
2023-04-04T11:38:29.974Z,102474.28
2023-04-04T11:40:59.525Z,102457.63
2023-04-04T11:43:29.796Z,102478.56
2023-04-04T11:46:08.713Z,102473.25
2023-04-04T11:48:36.817Z,102447.41
2023-04-04T11:51:05.268Z,102439.63
2023-04-04T11:53:34.255Z,102436.50
2023-04-04T11:56:04.014Z,102444.03
2023-04-04T11:58:37.101Z,102433.13
2023-04-04T12:01:06.010Z,102425.44
2023-04-04T12:03:35.012Z,102437.44
2023-04-04T12:06:03.064Z,102439.44
2023-04-04T12:08:33.633Z,102468.06
2023-04-04T12:11:09.481Z,102444.59
2023-04-04T12:13:43.482Z,102425.75
2023-04-04T12:16:11.781Z,102437.31
2023-04-04T12:18:39.944Z,102398.72
2023-04-04T12:21:08.529Z,102391.13
2023-04-04T12:23:36.879Z,102391.78
2023-04-04T12:26:07.144Z,102383.50
2023-04-04T12:28:36.103Z,102398.84
2023-04-04T12:31:05.702Z,102417.78
2023-04-04T12:33:35.569Z,102393.28
2023-04-04T12:36:05.246Z,102417.03
2023-04-04T12:38:33.930Z,102374.91
2023-04-04T12:41:01.939Z,102361.59
2023-04-04T12:43:33.853Z,102365.81
2023-04-04T12:46:03.250Z,102370.50
2023-04-04T12:48:31.736Z,102355.44
2023-04-04T12:51:00.758Z,102376.97
2023-04-04T12:53:30.169Z,102367.41
2023-04-04T12:56:03.122Z,102367.00
2023-04-04T12:58:34.882Z,102368.00
2023-04-04T13:01:04.775Z,102381.38
2023-04-04T13:03:34.798Z,102385.44
2023-04-04T13:06:03.726Z,102357.72
2023-04-04T13:08:31.716Z,102346.53
2023-04-04T13:11:03.615Z,102351.78
2023-04-04T13:13:38.644Z,102356.03
2023-04-04T13:16:08.154Z,102356.38
2023-04-04T13:18:39.236Z,102356.81
2023-04-04T13:21:10.898Z,102341.50
2023-04-04T13:23:40.611Z,102310.88
2023-04-04T13:26:09.972Z,102311.50
2023-04-04T13:28:40.170Z,102277.97
2023-04-04T13:31:10.018Z,102305.16
2023-04-04T13:33:38.880Z,102323.00
2023-04-04T13:36:07.530Z,102332.84
2023-04-04T13:38:36.052Z,102314.88
2023-04-04T13:41:03.918Z,102330.06
2023-04-04T13:43:31.820Z,102316.88
2023-04-04T13:46:01.117Z,102320.94
2023-04-04T13:48:28.954Z,102306.94
2023-04-04T13:50:57.459Z,102307.28
2023-04-04T13:53:25.409Z,102278.72
2023-04-04T13:58:24.028Z,102307.59
2023-04-04T14:00:52.498Z,102277.31
2023-04-04T14:03:22.446Z,102281.03
2023-04-04T14:05:50.364Z,102275.56
2023-04-04T14:08:18.181Z,102274.56
2023-04-04T14:10:46.316Z,102301.00
2023-04-04T14:13:14.405Z,102292.81
2023-04-04T14:15:42.895Z,102302.59
2023-04-04T14:18:12.214Z,102276.53
2023-04-04T14:20:41.548Z,102262.69
2023-04-04T14:23:09.701Z,102269.38
2023-04-04T14:25:37.679Z,102256.56
2023-04-04T14:28:06.213Z,102249.13
2023-04-04T14:30:34.088Z,102263.09
2023-04-04T14:33:02.119Z,102248.84
2023-04-04T14:35:29.903Z,102240.69
2023-04-04T14:37:59.017Z,102246.84
2023-04-04T14:40:27.328Z,102257.16
2023-04-04T14:42:55.156Z,102245.91
2023-04-04T14:45:23.742Z,102219.25
2023-04-04T14:47:51.810Z,102239.69
2023-04-04T14:50:19.659Z,102224.72
2023-04-04T14:52:51.041Z,102225.88
2023-04-04T14:55:20.867Z,102238.38
2023-04-04T14:58:01.209Z,102237.91
2023-04-04T15:00:30.213Z,102249.31
2023-04-04T15:02:58.329Z,102252.47
2023-04-04T15:05:26.386Z,102248.97
2023-04-04T15:07:55.526Z,102250.66
2023-04-04T15:10:24.716Z,102229.88
2023-04-04T15:12:52.467Z,102245.34
2023-04-04T15:15:21.660Z,102224.16
2023-04-04T15:17:51.432Z,102242.25
2023-04-04T15:20:19.268Z,102226.38
2023-04-04T15:22:47.072Z,102239.78
2023-04-04T15:25:14.959Z,102229.34
2023-04-04T15:27:44.002Z,102222.53
2023-04-04T15:30:13.441Z,102240.13
2023-04-04T15:32:41.355Z,102217.94
2023-04-04T15:35:17.492Z,102250.00
2023-04-04T15:37:45.724Z,102245.44
2023-04-04T15:40:13.876Z,102248.19
2023-04-04T15:42:41.759Z,102236.38
2023-04-04T15:45:12.358Z,102247.31
2023-04-04T15:47:40.287Z,102244.78
2023-04-04T15:50:08.965Z,102236.22
2023-04-04T15:52:36.682Z,102262.38
2023-04-04T15:55:04.800Z,102231.88
2023-04-04T15:57:32.953Z,102227.91
2023-04-04T16:00:00.879Z,102254.09
2023-04-04T16:02:30.098Z,102239.81
2023-04-04T16:04:58.458Z,102242.03
2023-04-04T16:07:26.529Z,102216.59
2023-04-04T16:09:54.352Z,102237.31
2023-04-04T16:12:22.442Z,102231.44
2023-04-04T16:14:50.343Z,102229.88
2023-04-04T16:17:18.118Z,102243.72
2023-04-04T16:19:47.659Z,102224.03
2023-04-04T16:22:15.439Z,102235.22
2023-04-04T16:24:43.209Z,102248.22
2023-04-04T16:27:11.885Z,102241.25
2023-04-04T16:29:39.804Z,102245.00
2023-04-04T16:32:08.151Z,102248.44
2023-04-04T16:34:38.795Z,102260.19
2023-04-04T16:37:09.733Z,102250.75
2023-04-04T16:39:37.504Z,102238.66
2023-04-04T16:42:05.435Z,102245.72
2023-04-04T16:44:33.280Z,102241.66
2023-04-04T16:47:01.039Z,102253.38
2023-04-04T16:49:28.997Z,102260.03
2023-04-04T16:51:56.839Z,102265.19
2023-04-04T16:54:26.285Z,102278.81
2023-04-04T16:56:54.442Z,102278.31
2023-04-04T16:59:22.149Z,102280.97
2023-04-04T17:01:49.949Z,102256.56
2023-04-04T17:04:17.865Z,102278.72
2023-04-04T17:06:45.916Z,102275.81
2023-04-04T17:09:13.830Z,102260.66
2023-04-04T17:11:44.924Z,102270.44
2023-04-04T17:14:12.763Z,102269.50
2023-04-04T17:16:40.744Z,102283.88
2023-04-04T17:19:08.764Z,102288.91
2023-04-04T17:21:36.794Z,102306.81
2023-04-04T17:24:05.713Z,102289.06
2023-04-04T17:26:34.050Z,102293.09
2023-04-04T17:29:03.205Z,102267.38
2023-04-04T17:31:31.137Z,102277.00
2023-04-04T17:33:59.008Z,102280.28
2023-04-04T17:36:27.086Z,102290.47
2023-04-04T17:38:55.335Z,102292.56
2023-04-04T17:41:23.252Z,102286.03
2023-04-04T17:43:52.043Z,102289.75
2023-04-04T17:46:21.119Z,102293.28
2023-04-04T17:48:48.827Z,102297.78
2023-04-04T17:51:17.782Z,102310.44
2023-04-04T17:53:46.032Z,102304.34
2023-04-04T17:56:13.962Z,102309.13
2023-04-04T17:58:41.759Z,102318.94
2023-04-04T18:01:09.774Z,102319.19
2023-04-04T18:03:39.075Z,102323.53
2023-04-04T18:06:07.077Z,102318.22
2023-04-04T18:08:34.837Z,102322.13
2023-04-04T18:11:04.090Z,102324.56
2023-04-04T18:13:32.236Z,102318.94
2023-04-04T18:16:02.524Z,102333.28
2023-04-04T18:18:30.776Z,102330.31
2023-04-04T18:21:00.360Z,102350.22
2023-04-04T18:23:28.385Z,102347.00
2023-04-04T18:25:56.639Z,102350.75
2023-04-04T18:28:24.879Z,102338.97
2023-04-04T18:30:52.932Z,102331.34
2023-04-04T18:33:21.068Z,102342.03
2023-04-04T18:35:48.927Z,102345.78
2023-04-04T18:38:18.116Z,102363.88
2023-04-04T18:40:46.912Z,102370.47
2023-04-04T18:43:14.917Z,102400.19
2023-04-04T18:45:42.894Z,102401.78
2023-04-04T18:48:12.600Z,102391.97
2023-04-04T18:50:40.966Z,102383.25
2023-04-04T18:53:09.215Z,102391.31
2023-04-04T18:55:39.193Z,102384.28
2023-04-04T18:58:06.932Z,102397.63
2023-04-04T19:00:34.755Z,102406.81
2023-04-04T19:03:03.101Z,102398.81
2023-04-04T19:05:33.324Z,102395.19
2023-04-04T19:08:02.563Z,102405.00
2023-04-04T19:10:30.934Z,102383.63
2023-04-04T19:13:00.013Z,102378.25
2023-04-04T19:15:28.027Z,102387.97
2023-04-04T19:17:55.990Z,102389.00
2023-04-04T19:20:23.774Z,102395.34
2023-04-04T19:22:51.571Z,102395.41
2023-04-04T19:25:20.344Z,102389.19
2023-04-04T19:27:48.146Z,102394.47
2023-04-04T19:30:49.154Z,102397.19
2023-04-04T19:33:20.163Z,102387.53
2023-04-04T19:35:51.995Z,102394.69
2023-04-04T19:38:23.948Z,102396.59
2023-04-04T19:40:54.701Z,102414.47
2023-04-04T19:43:23.435Z,102407.53
2023-04-04T19:45:52.942Z,102403.13
2023-04-04T19:48:43.565Z,102412.16
2023-04-04T19:51:33.476Z,102395.28
2023-04-04T19:54:01.751Z,102382.75
2023-04-04T19:56:29.990Z,102379.38
2023-04-04T19:59:00.066Z,102388.28
2023-04-04T20:01:30.020Z,102382.13
2023-04-04T20:04:06.600Z,102380.38
2023-04-04T20:06:35.628Z,102384.75
2023-04-04T20:09:08.219Z,102391.16
2023-04-04T20:11:38.034Z,102383.09
2023-04-04T20:14:08.262Z,102394.75
2023-04-04T20:16:36.912Z,102389.50
2023-04-04T20:19:08.094Z,102375.03
2023-04-04T20:21:36.138Z,102376.88
2023-04-04T20:24:08.337Z,102387.59
2023-04-04T20:26:51.171Z,102378.78
2023-04-04T20:29:21.786Z,102375.97
2023-04-04T20:31:51.692Z,102383.09
2023-04-04T20:34:38.762Z,102380.59
2023-04-04T20:37:09.240Z,102386.09
2023-04-04T20:39:41.506Z,102379.91
2023-04-04T20:42:20.320Z,102386.09
2023-04-04T20:44:48.173Z,102375.41
2023-04-04T20:47:41.878Z,102370.06
2023-04-04T20:50:45.220Z,102375.50
2023-04-04T20:53:20.990Z,102374.53
2023-04-04T20:55:50.565Z,102364.72
2023-04-04T20:58:26.748Z,102356.63
2023-04-04T21:00:55.141Z,102365.69
2023-04-04T21:03:37.458Z,102364.78
2023-04-04T21:06:15.113Z,102367.44
2023-04-04T21:08:45.408Z,102358.63
2023-04-04T21:11:14.444Z,102347.84
2023-04-04T21:13:44.702Z,102340.69
2023-04-04T21:16:14.086Z,102344.41
2023-04-04T21:18:42.714Z,102345.41
2023-04-04T21:21:19.934Z,102357.13
2023-04-04T21:23:53.225Z,102359.94
2023-04-04T21:26:33.009Z,102345.50
2023-04-04T21:29:02.468Z,102353.59
2023-04-04T21:31:35.890Z,102348.31
2023-04-04T21:34:08.920Z,102344.00
2023-04-04T21:36:38.338Z,102354.84
2023-04-04T21:39:10.846Z,102348.75
2023-04-04T21:41:38.879Z,102350.56
2023-04-04T21:44:08.334Z,102357.81
2023-04-04T21:46:37.578Z,102342.78
2023-04-04T21:49:06.366Z,102342.81
2023-04-04T21:51:34.319Z,102334.78
2023-04-04T21:54:03.764Z,102341.03
2023-04-04T21:56:32.458Z,102340.16
2023-04-04T21:59:00.905Z,102336.72
2023-04-04T22:01:28.944Z,102346.56
2023-04-04T22:03:56.935Z,102341.34
2023-04-04T22:06:26.408Z,102332.50
2023-04-04T22:08:56.562Z,102328.13
2023-04-04T22:11:27.605Z,102321.16
2023-04-04T22:14:03.984Z,102322.94
2023-04-04T22:16:36.751Z,102325.63
2023-04-04T22:19:04.903Z,102320.31
2023-04-04T22:21:36.465Z,102318.66
2023-04-04T22:24:05.822Z,102315.19
2023-04-04T22:26:35.674Z,102325.09
2023-04-04T22:29:06.125Z,102329.63
2023-04-04T22:31:35.198Z,102323.41
2023-04-04T22:34:03.931Z,102324.34
2023-04-04T22:36:34.330Z,102320.00
2023-04-04T22:39:02.746Z,102324.47
2023-04-04T22:41:30.875Z,102318.28
2023-04-04T22:44:00.166Z,102319.41
2023-04-04T22:46:29.299Z,102311.47
2023-04-04T22:49:04.873Z,102312.41
2023-04-04T22:51:44.861Z,102320.53
2023-04-04T22:54:14.172Z,102317.78
2023-04-04T22:56:42.262Z,102324.19
2023-04-04T22:59:12.070Z,102316.19
2023-04-04T23:01:40.586Z,102317.03
2023-04-04T23:04:08.484Z,102316.19
2023-04-04T23:06:38.689Z,102310.03
2023-04-04T23:09:07.472Z,102319.78
2023-04-04T23:11:35.474Z,102318.84
2023-04-04T23:14:08.439Z,102319.78
2023-04-04T23:16:37.817Z,102317.16
2023-04-04T23:19:05.668Z,102317.22
2023-04-04T23:21:33.487Z,102310.97
2023-04-04T23:24:01.315Z,102311.03
2023-04-04T23:26:29.077Z,102311.94
2023-04-04T23:28:57.066Z,102302.19
2023-04-04T23:31:25.883Z,102312.94
2023-04-04T23:33:55.375Z,102310.25
2023-04-04T23:36:23.383Z,102304.00
2023-04-04T23:38:51.396Z,102299.59
2023-04-04T23:41:19.304Z,102291.63
2023-04-04T23:43:47.089Z,102297.84
2023-04-04T23:46:15.373Z,102300.44
2023-04-04T23:48:43.270Z,102295.16
2023-04-04T23:51:13.164Z,102287.16
2023-04-04T23:53:41.292Z,102285.41
2023-04-04T23:56:09.329Z,102277.38
2023-04-04T23:58:38.070Z,102275.69
